Time;durP1;ratioP1;P1;durP2;ratioP2;P2;SDS_P1;SDS_P2;PMS_P1;PMS_P2;Temp;Humidity;BMP_temperature;BMP_pressure;BME280_temperature;BME280_humidity;BME280_pressure;Samples;Min_cycle;Max_cycle;Signal;HPM_P1;HPM_P2
2023/09/17 00:02:16;;;;;;;27.38;21.95;;;17.00;99.90;;;;;;6187902;23;20031;-89
2023/09/17 00:04:45;;;;;;;27.88;21.42;;;16.60;99.90;;;;;;6188620;23;20027;-88
2023/09/17 00:07:53;;;;;;;27.05;21.55;;;16.30;99.90;;;;;;6186478;23;20020;-88
2023/09/17 00:11:29;;;;;;;27.10;21.90;;;15.90;99.90;;;;;;6082995;23;20095;-88
2023/09/17 00:13:54;;;;;;;;;;;16.20;99.90;;;;;;6128769;23;20018;-88
2023/09/17 00:16:39;;;;;;;27.50;21.08;;;16.10;99.90;;;;;;6130334;23;19947;-88
2023/09/17 00:19:22;;;;;;;26.55;20.73;;;16.10;99.90;;;;;;6130364;23;20013;-88
2023/09/17 00:21:58;;;;;;;29.83;22.05;;;16.10;99.90;;;;;;6078808;23;20431;-88
2023/09/17 00:25:00;;;;;;;26.27;20.45;;;16.00;99.90;;;;;;6156103;23;20017;-88
2023/09/17 00:33:24;;;;;;;25.90;21.20;;;16.00;99.90;;;;;;6063111;23;20022;-86
2023/09/17 00:35:52;;;;;;;25.92;20.45;;;15.90;99.90;;;;;;6040623;23;20030;-86
2023/09/17 00:38:38;;;;;;;27.85;21.00;;;15.80;99.90;;;;;;6042042;23;20023;-86
2023/09/17 00:41:22;;;;;;;27.45;21.48;;;15.80;99.90;;;;;;6058021;23;20015;-86
2023/09/17 00:44:03;;;;;;;28.10;22.48;;;15.90;99.90;;;;;;6056615;23;20021;-86
2023/09/17 00:47:10;;;;;;;27.52;21.10;;;15.80;99.90;;;;;;6083425;23;20013;-86
2023/09/17 00:49:39;;;;;;;28.15;22.27;;;15.10;99.90;;;;;;6100091;23;20018;-86
2023/09/17 00:52:27;;;;;;;28.15;21.55;;;15.80;99.90;;;;;;6100948;23;20077;-86
2023/09/17 00:55:07;;;;;;;27.60;20.10;;;15.80;99.90;;;;;;6100581;23;20025;-86
2023/09/17 01:00:38;;;;;;;25.80;20.52;;;15.90;99.90;;;;;;6102282;23;20018;-86
2023/09/17 01:03:13;;;;;;;26.38;20.55;;;15.80;99.90;;;;;;6104464;23;20543;-86
2023/09/17 01:05:43;;;;;;;28.40;20.98;;;15.80;99.90;;;;;;6100100;23;20108;-86
2023/09/17 01:11:35;;;;;;;28.45;21.00;;;15.90;99.90;;;;;;6213577;23;20020;-85
2023/09/17 01:14:21;;;;;;;27.15;20.58;;;15.80;99.90;;;;;;6188782;23;20031;-86
2023/09/17 01:16:51;;;;;;;26.55;20.65;;;15.80;99.90;;;;;;6178605;23;20388;-87
2023/09/17 01:19:42;;;;;;;25.88;20.58;;;15.90;99.90;;;;;;6189266;23;20457;-87
2023/09/17 01:22:44;;;;;;;27.23;21.00;;;15.90;99.90;;;;;;6158140;23;20120;-87
2023/09/17 01:25:58;;;;;;;26.73;20.70;;;15.80;99.90;;;;;;6157208;23;20017;-87
2023/09/17 01:28:53;;;;;;;27.20;20.60;;;15.30;99.90;;;;;;6140389;23;20017;-86
2023/09/17 01:31:47;;;;;;;30.52;21.08;;;16.10;99.90;;;;;;6176375;23;20020;-87
2023/09/17 01:34:39;;;;;;;29.88;21.52;;;15.80;99.90;;;;;;6159778;23;20023;-87
2023/09/17 01:43:18;;;;;;;26.38;20.63;;;15.80;99.90;;;;;;6206394;23;20070;-87
2023/09/17 01:46:05;;;;;;;28.58;22.40;;;15.60;99.90;;;;;;6187209;23;20027;-87
2023/09/17 01:49:08;;;;;;;28.85;21.95;;;15.80;99.90;;;;;;6189223;23;20013;-87
2023/09/17 02:01:37;;;;;;;29.60;22.20;;;15.80;99.90;;;;;;6212797;23;20025;-87
2023/09/17 02:04:21;;;;;;;30.08;22.48;;;15.70;99.90;;;;;;6188650;23;20048;-87
2023/09/17 02:06:56;;;;;;;29.83;22.73;;;15.70;99.90;;;;;;6185867;23;20017;-87
2023/09/17 02:10:26;;;;;;;30.00;21.95;;;15.30;99.90;;;;;;6189282;23;20020;-87
2023/09/17 02:13:00;;;;;;;29.58;23.38;;;15.70;99.90;;;;;;6040396;23;20688;-87
2023/09/17 02:24:54;;;;;;;30.33;23.98;;;15.70;99.90;;;;;;6099208;23;20029;-87
2023/09/17 02:27:40;;;;;;;32.63;24.20;;;15.70;99.90;;;;;;6098821;23;20466;-87
2023/09/17 02:37:03;;;;;;;33.72;25.88;;;15.60;99.90;;;;;;6187139;23;20091;-88
2023/09/17 02:39:29;;;;;;;36.70;26.33;;;15.70;99.90;;;;;;6187104;23;20020;-87
2023/09/17 02:41:58;;;;;;;35.10;26.27;;;15.30;99.90;;;;;;6187002;23;20036;-87
2023/09/17 02:44:27;;;;;;;33.55;25.95;;;15.60;99.90;;;;;;6188625;23;20386;-87
2023/09/17 02:46:53;;;;;;;36.08;27.20;;;16.00;99.90;;;;;;6189523;23;20021;-87
2023/09/17 02:49:21;;;;;;;39.45;28.23;;;15.60;99.90;;;;;;6188732;23;20025;-87
2023/09/17 02:52:08;;;;;;;35.70;27.13;;;15.60;99.90;;;;;;6219412;23;20378;-87
2023/09/17 02:54:40;;;;;;;35.40;27.75;;;15.60;99.90;;;;;;6180521;23;20047;-87
2023/09/17 02:57:09;;;;;;;37.42;26.67;;;15.60;99.90;;;;;;6187746;23;20020;-87
2023/09/17 02:59:51;;;;;;;34.90;27.63;;;15.60;99.90;;;;;;6188186;23;20029;-86
2023/09/17 03:02:23;;;;;;;38.00;27.88;;;15.60;99.90;;;;;;6187609;23;20020;-87
2023/09/17 03:08:26;;;;;;;38.65;28.70;;;15.60;99.90;;;;;;6188236;23;20052;-87
2023/09/17 03:10:58;;;;;;;37.30;28.55;;;15.60;99.90;;;;;;6187248;23;20012;-87
2023/09/17 03:14:14;;;;;;;38.58;29.25;;;15.50;99.90;;;;;;6187603;23;20016;-87
2023/09/17 03:16:46;;;;;;;40.53;29.17;;;15.60;99.90;;;;;;6096842;23;20018;-87
2023/09/17 03:22:10;;;;;;;37.17;29.02;;;15.50;99.90;;;;;;6122294;23;20030;-87
2023/09/17 03:25:01;;;;;;;36.83;28.53;;;15.60;99.90;;;;;;6122340;23;20453;-87
2023/09/17 03:27:36;;;;;;;40.17;29.80;;;15.60;99.90;;;;;;6159593;23;20284;-87
2023/09/17 03:30:21;;;;;;;37.63;28.40;;;16.00;99.90;;;;;;6149974;23;20028;-87
2023/09/17 03:32:46;;;;;;;38.83;28.38;;;15.50;99.90;;;;;;6159997;23;20021;-87
2023/09/17 03:35:27;;;;;;;38.85;29.83;;;15.60;99.90;;;;;;6180369;23;20070;-87
2023/09/17 03:38:12;;;;;;;38.25;28.85;;;16.60;99.90;;;;;;6214068;23;20063;-88
2023/09/17 03:41:12;;;;;;;37.03;28.67;;;15.60;99.90;;;;;;6213639;23;20051;-87
2023/09/17 03:43:52;;;;;;;39.38;28.70;;;15.50;99.90;;;;;;6214948;23;20070;-87
2023/09/17 03:46:24;;;;;;;39.33;30.13;;;15.60;99.90;;;;;;6214213;23;20016;-87
2023/09/17 03:48:52;;;;;;;39.47;30.50;;;15.90;99.90;;;;;;6216569;23;20480;-87
2023/09/17 03:51:34;;;;;;;38.33;29.25;;;15.60;99.90;;;;;;6214219;23;20341;-88
2023/09/17 03:54:05;;;;;;;37.95;29.25;;;15.50;99.90;;;;;;6214681;23;20020;-87
2023/09/17 03:56:34;;;;;;;39.08;29.73;;;15.50;99.90;;;;;;6214956;23;20476;-87
2023/09/17 03:59:03;;;;;;;37.88;30.35;;;15.50;99.90;;;;;;6214285;23;20028;-87
2023/09/17 04:01:29;;;;;;;40.35;30.05;;;15.60;99.90;;;;;;6214300;23;20050;-87
2023/09/17 04:03:57;;;;;;;39.05;30.10;;;15.50;99.90;;;;;;6214275;23;20046;-87
2023/09/17 04:06:29;;;;;;;41.83;31.33;;;16.20;99.90;;;;;;6212425;23;20017;-87
2023/09/17 04:08:58;;;;;;;43.60;31.45;;;16.00;99.90;;;;;;6214307;23;20150;-87
2023/09/17 04:11:54;;;;;;;44.72;32.10;;;15.50;99.90;;;;;;6216419;23;20016;-87
2023/09/17 04:14:23;;;;;;;39.85;30.08;;;15.50;99.90;;;;;;6215638;23;20024;-87
2023/09/17 04:16:48;;;;;;;39.38;30.65;;;15.00;99.90;;;;;;6214044;23;20016;-87
2023/09/17 04:19:17;;;;;;;40.17;29.92;;;15.50;99.90;;;;;;6213189;23;20024;-87
2023/09/17 04:22:03;;;;;;;41.10;30.83;;;15.50;99.90;;;;;;6214579;23;20450;-87
2023/09/17 04:24:39;;;;;;;40.88;30.13;;;15.50;99.90;;;;;;6215085;23;20074;-87
2023/09/17 04:27:21;;;;;;;42.58;32.20;;;15.50;99.90;;;;;;6221745;23;20068;-87
2023/09/17 04:30:59;;;;;;;44.28;32.03;;;15.40;99.90;;;;;;6239197;23;20021;-87
2023/09/17 04:33:28;;;;;;;43.83;32.90;;;15.40;99.90;;;;;;6214559;23;20028;-87
2023/09/17 04:36:19;;;;;;;46.20;33.90;;;15.40;99.90;;;;;;6214570;23;20461;-87
2023/09/17 04:38:53;;;;;;;44.97;33.50;;;15.40;99.90;;;;;;6212670;23;20014;-87
2023/09/17 04:41:57;;;;;;;45.35;33.92;;;15.40;99.90;;;;;;6218574;23;20031;-88
2023/09/17 04:44:28;;;;;;;47.38;34.35;;;15.40;99.90;;;;;;6208785;23;20019;-87
2023/09/17 04:46:57;;;;;;;46.70;34.33;;;15.40;99.90;;;;;;6213932;23;20025;-88
2023/09/17 04:50:28;;;;;;;49.28;34.47;;;15.30;99.90;;;;;;6159110;23;20021;-88
2023/09/17 04:56:56;;;;;;;53.53;36.55;;;15.40;99.90;;;;;;6129573;23;20358;-88
2023/09/17 04:59:34;;;;;;;52.53;37.13;;;16.30;99.90;;;;;;6130322;23;20018;-88
2023/09/17 05:02:00;;;;;;;58.80;38.33;;;16.30;99.90;;;;;;6128230;23;20024;-88
2023/09/17 05:04:30;;;;;;;52.58;36.88;;;15.30;99.90;;;;;;6162323;23;20412;-87
2023/09/17 05:07:03;;;;;;;51.28;34.50;;;15.30;99.90;;;;;;6175691;23;20058;-88
2023/09/17 05:23:03;;;;;;;61.33;40.22;;;15.30;99.90;;;;;;6128205;23;20028;-88
2023/09/17 05:41:05;;;;;;;;;;;;;;;;;;;;;
2023/09/17 06:57:10;;;;;;;63.58;42.90;;;15.80;99.90;;;;;;6206169;23;20027;-88
2023/09/17 06:59:57;;;;;;;68.38;44.97;;;16.00;99.90;;;;;;6193744;23;20044;-88
2023/09/17 07:02:23;;;;;;;69.95;44.25;;;16.10;99.90;;;;;;6191078;23;20028;-87
2023/09/17 07:04:49;;;;;;;67.82;44.50;;;16.10;99.90;;;;;;6191483;23;20012;-87
2023/09/17 07:07:14;;;;;;;71.57;45.63;;;16.60;99.90;;;;;;6192291;23;20017;-87
2023/09/17 07:09:43;;;;;;;68.30;45.08;;;16.20;99.90;;;;;;6193275;23;20020;-86
2023/09/17 07:12:24;;;;;;;70.72;45.15;;;17.00;99.90;;;;;;6191686;23;20070;-86
2023/09/17 07:14:53;;;;;;;69.18;44.95;;;16.80;99.90;;;;;;6192012;23;20016;-87
2023/09/17 07:17:19;;;;;;;65.28;43.05;;;16.40;99.90;;;;;;6218423;23;20017;-86
2023/09/17 07:19:44;;;;;;;68.50;43.83;;;17.20;99.90;;;;;;6192408;23;20100;-86
2023/09/17 07:26:03;;;;;;;61.15;41.92;;;16.40;99.90;;;;;;6188814;23;20361;-87
2023/09/17 07:28:38;;;;;;;57.15;40.05;;;17.10;99.90;;;;;;6213579;23;20013;-86
2023/09/17 07:31:10;;;;;;;56.22;39.63;;;16.60;99.90;;;;;;6195346;23;20020;-86
2023/09/17 07:33:39;;;;;;;60.20;39.28;;;16.80;99.90;;;;;;6191171;23;20099;-87
2023/09/17 07:36:24;;;;;;;53.78;37.95;;;16.80;99.90;;;;;;6189642;23;20048;-88
2023/09/17 07:38:56;;;;;;;56.33;38.75;;;16.80;99.90;;;;;;6189144;23;20392;-87
2023/09/17 07:41:34;;;;;;;50.20;36.65;;;16.90;99.90;;;;;;6189789;23;20024;-88
2023/09/17 07:44:14;;;;;;;51.53;36.00;;;17.00;99.90;;;;;;6188924;23;20070;-87
2023/09/17 07:46:40;;;;;;;53.33;35.90;;;17.00;99.90;;;;;;6189883;23;20008;-87
2023/09/17 07:49:26;;;;;;;49.10;35.90;;;17.10;99.90;;;;;;6190007;23;20012;-87
2023/09/17 07:52:05;;;;;;;50.65;36.10;;;17.10;99.90;;;;;;6188567;23;20024;-87
2023/09/17 07:54:51;;;;;;;51.60;37.40;;;17.20;99.90;;;;;;6189883;23;20111;-87
2023/09/17 07:57:17;;;;;;;51.80;37.22;;;17.20;99.90;;;;;;6189475;23;20051;-86
2023/09/17 08:00:24;;;;;;;50.67;36.55;;;17.30;99.90;;;;;;6189389;23;20012;-85
2023/09/17 08:02:50;;;;;;;51.42;36.97;;;16.90;99.90;;;;;;6042085;23;20097;-85
2023/09/17 08:05:17;;;;;;;45.63;34.75;;;17.40;99.90;;;;;;6041890;23;20502;-86
2023/09/17 08:07:44;;;;;;;50.53;35.03;;;17.40;99.90;;;;;;6042328;23;20018;-86
2023/09/17 08:10:12;;;;;;;50.10;34.95;;;17.50;99.90;;;;;;6042343;23;20022;-86
2023/09/17 08:12:47;;;;;;;44.22;34.20;;;17.60;99.90;;;;;;6058310;23;20019;-86
2023/09/17 08:15:19;;;;;;;45.60;34.80;;;17.70;99.90;;;;;;6190613;23;20016;-86
2023/09/17 08:17:44;;;;;;;44.17;33.45;;;17.80;99.90;;;;;;6190955;23;20378;-86
2023/09/17 08:20:18;;;;;;;43.80;33.15;;;17.80;99.90;;;;;;6188984;23;20409;-86
2023/09/17 08:22:46;;;;;;;41.85;31.20;;;18.00;99.90;;;;;;6189261;23;20512;-86
2023/09/17 08:25:26;;;;;;;42.45;30.27;;;18.00;99.90;;;;;;6188933;23;20014;-86
2023/09/17 08:28:06;;;;;;;38.55;30.13;;;17.90;99.90;;;;;;6210350;23;20453;-85
2023/09/17 08:30:31;;;;;;;39.45;29.92;;;18.00;99.90;;;;;;6189649;23;20066;-86
2023/09/17 08:33:04;;;;;;;40.88;28.67;;;18.00;99.90;;;;;;6188465;23;20318;-86
2023/09/17 08:35:30;;;;;;;38.13;29.50;;;18.00;99.90;;;;;;6189326;23;20017;-86
2023/09/17 08:41:13;;;;;;;40.67;27.95;;;18.10;99.90;;;;;;6216609;23;20074;-86
2023/09/17 08:43:40;;;;;;;39.42;28.55;;;18.20;99.90;;;;;;6190747;23;20096;-86
2023/09/17 08:46:09;;;;;;;35.63;27.23;;;18.20;99.90;;;;;;6217990;23;20021;-86
2023/09/17 08:48:46;;;;;;;38.30;28.08;;;18.30;99.90;;;;;;6188817;23;20465;-86
2023/09/17 08:52:00;;;;;;;36.67;27.75;;;18.30;99.90;;;;;;6191680;23;20016;-86
2023/09/17 08:54:38;;;;;;;38.08;29.13;;;18.30;99.90;;;;;;6042951;23;20019;-86
2023/09/17 08:57:53;;;;;;;40.63;28.63;;;18.40;99.90;;;;;;6043365;23;20084;-86
2023/09/17 09:01:25;;;;;;;37.20;28.52;;;18.40;99.90;;;;;;6043062;23;20019;-87
2023/09/17 09:03:56;;;;;;;36.70;27.33;;;18.10;99.90;;;;;;6062806;23;20503;-87
2023/09/17 09:06:29;;;;;;;40.53;29.33;;;18.30;99.90;;;;;;6190744;23;20031;-87
2023/09/17 09:08:58;;;;;;;39.50;28.33;;;18.30;99.90;;;;;;6189095;23;20079;-87
2023/09/17 09:11:52;;;;;;;36.13;27.02;;;18.30;99.90;;;;;;6172890;23;20016;-87
2023/09/17 09:14:39;;;;;;;37.42;27.73;;;19.10;99.90;;;;;;6191501;23;20079;-87
2023/09/17 09:17:26;;;;;;;37.35;26.85;;;18.30;99.90;;;;;;6190315;23;20016;-87
2023/09/17 09:19:58;;;;;;;38.63;27.88;;;18.10;99.90;;;;;;6164796;23;20019;-87
2023/09/17 09:22:27;;;;;;;37.55;27.60;;;18.20;99.90;;;;;;6191134;23;20070;-87
2023/09/17 09:25:07;;;;;;;39.03;28.88;;;18.20;99.90;;;;;;6190012;23;20314;-87
2023/09/17 09:27:39;;;;;;;39.95;28.90;;;18.10;99.90;;;;;;6190908;23;20373;-87
2023/09/17 09:30:14;;;;;;;38.72;28.77;;;18.10;99.90;;;;;;6191051;23;20020;-87
2023/09/17 09:32:42;;;;;;;39.03;29.08;;;18.10;99.90;;;;;;6190064;23;20038;-87
2023/09/17 09:35:16;;;;;;;39.45;28.65;;;18.10;99.90;;;;;;6217153;23;20488;-87
2023/09/17 09:37:46;;;;;;;40.58;28.67;;;18.10;99.90;;;;;;6189189;23;20460;-87
2023/09/17 09:41:03;;;;;;;37.97;28.35;;;18.10;99.90;;;;;;6155558;23;20029;-87
2023/09/17 09:43:30;;;;;;;39.63;28.67;;;18.30;99.90;;;;;;6154244;23;20028;-87
2023/09/17 09:46:00;;;;;;;40.03;28.65;;;18.30;99.90;;;;;;6155644;23;20068;-87
2023/09/17 09:48:28;;;;;;;41.92;29.45;;;18.40;99.90;;;;;;6156187;23;20064;-87
2023/09/17 09:50:55;;;;;;;40.05;28.33;;;18.50;99.90;;;;;;6152901;23;20021;-86
2023/09/17 09:53:24;;;;;;;40.13;29.60;;;18.50;99.90;;;;;;6155096;23;20017;-87
2023/09/17 09:55:50;;;;;;;38.10;28.00;;;18.60;99.90;;;;;;6154807;23;20068;-86
2023/09/17 09:58:17;;;;;;;39.75;28.17;;;18.70;99.90;;;;;;6155962;23;20120;-87
2023/09/17 10:00:59;;;;;;;37.00;27.27;;;18.80;99.90;;;;;;6155057;23;20013;-87
2023/09/17 10:03:25;;;;;;;40.85;29.38;;;18.80;99.90;;;;;;6155113;23;20342;-86
2023/09/17 10:05:50;;;;;;;38.10;28.13;;;18.90;99.90;;;;;;6153766;23;20018;-86
2023/09/17 10:08:32;;;;;;;35.88;27.35;;;19.00;99.90;;;;;;6155558;23;20153;-86
2023/09/17 10:10:58;;;;;;;36.90;27.45;;;19.00;99.90;;;;;;6153321;23;20036;-86
2023/09/17 10:13:38;;;;;;;36.30;28.08;;;19.10;99.90;;;;;;6159001;23;20455;-86
2023/09/17 10:16:34;;;;;;;38.28;27.52;;;19.30;99.90;;;;;;6156753;23;20014;-86
2023/09/17 10:19:00;;;;;;;36.80;26.27;;;19.30;99.90;;;;;;6156837;23;20018;-86
2023/09/17 10:21:39;;;;;;;35.05;25.88;;;19.80;99.90;;;;;;6154257;23;20439;-86
2023/09/17 10:24:06;;;;;;;33.35;25.88;;;19.90;99.90;;;;;;6154438;23;20018;-87
2023/09/17 10:26:41;;;;;;;33.95;25.98;;;20.20;99.90;;;;;;6152733;23;20014;-86
2023/09/17 10:29:18;;;;;;;33.42;24.58;;;20.50;99.90;;;;;;6148854;23;20025;-86
2023/09/17 10:31:50;;;;;;;30.50;23.85;;;20.50;99.90;;;;;;6153210;23;20018;-87
2023/09/17 10:34:36;;;;;;;32.90;25.20;;;20.40;99.90;;;;;;6153013;23;20517;-86
2023/09/17 10:37:06;;;;;;;32.63;24.27;;;20.40;99.90;;;;;;6153047;23;20473;-86
2023/09/17 10:39:38;;;;;;;34.55;26.50;;;20.30;99.90;;;;;;6174258;23;20025;-86
2023/09/17 10:42:08;;;;;;;33.88;24.88;;;20.20;99.90;;;;;;6183099;23;20350;-86
2023/09/17 10:44:36;;;;;;;33.33;23.88;;;20.10;99.90;;;;;;6183338;23;20092;-86
2023/09/17 10:47:09;;;;;;;31.55;24.98;;;20.00;99.90;;;;;;6184039;23;20071;-86
2023/09/17 10:49:45;;;;;;;31.07;24.47;;;19.90;99.90;;;;;;6183171;23;20021;-86
2023/09/17 10:52:29;;;;;;;38.95;26.10;;;19.70;99.90;;;;;;6184993;23;20743;-86
2023/09/17 10:55:13;;;;;;;33.35;25.60;;;19.60;99.90;;;;;;6181153;23;20701;-86
2023/09/17 10:58:23;;;;;;;35.10;26.23;;;19.60;99.90;;;;;;6183189;23;20020;-86
2023/09/17 11:00:56;;;;;;;34.00;26.00;;;19.60;99.90;;;;;;6182100;23;20025;-86
2023/09/17 11:03:22;;;;;;;;;;;19.70;99.90;;;;;;6183880;23;20454;-86
2023/09/17 11:06:02;;;;;;;35.42;24.92;;;19.90;99.90;;;;;;6182749;23;19920;-86
2023/09/17 11:08:31;;;;;;;31.02;23.55;;;20.10;99.90;;;;;;6182915;23;20016;-86
2023/09/17 11:11:15;;;;;;;30.13;23.38;;;20.60;99.90;;;;;;6182840;23;20021;-86
2023/09/17 11:13:46;;;;;;;;;;;20.90;99.90;;;;;;6183657;23;20009;-86
2023/09/17 11:16:23;;;;;;;29.30;22.75;;;21.00;99.90;;;;;;6182505;23;19987;-87
2023/09/17 11:19:20;;;;;;;30.20;22.88;;;21.00;99.90;;;;;;6183049;23;20442;-87
2023/09/17 11:22:10;;;;;;;29.05;22.50;;;21.10;99.90;;;;;;6181753;23;20017;-86
2023/09/17 11:24:50;;;;;;;29.63;22.27;;;21.20;99.90;;;;;;6183157;23;20520;-86
2023/09/17 11:27:50;;;;;;;27.70;21.30;;;21.30;99.90;;;;;;6183220;23;20021;-86
2023/09/17 11:30:25;;;;;;;26.63;21.30;;;21.50;99.90;;;;;;6172133;23;20025;-85
2023/09/17 11:53:06;;;;;;;27.00;21.90;;;22.40;99.90;;;;;;6099541;23;20046;-86
2023/09/17 12:00:09;;;;;;;30.02;21.80;;;22.30;99.90;;;;;;6124524;23;20018;-86
2023/09/17 12:02:53;;;;;;;26.05;19.88;;;22.60;99.90;;;;;;6104460;23;20355;-86
2023/09/17 12:05:44;;;;;;;24.67;19.95;;;22.50;99.90;;;;;;6218232;23;20020;-85
2023/09/17 12:11:22;;;;;;;24.52;19.35;;;22.50;99.90;;;;;;6212251;23;20020;-87
2023/09/17 12:14:51;;;;;;;26.42;19.02;;;22.50;99.90;;;;;;6188426;23;20511;-86
2023/09/17 12:18:16;;;;;;;22.80;18.80;;;22.50;99.90;;;;;;6159735;23;20052;-84
2023/09/17 12:21:07;;;;;;;24.63;18.38;;;22.70;99.90;;;;;;6158537;23;20024;-85
2023/09/17 12:26:35;;;;;;;23.30;18.63;;;22.80;99.90;;;;;;6158794;23;20017;-85
2023/09/17 12:29:36;;;;;;;24.02;18.98;;;22.90;99.90;;;;;;6159533;23;20047;-86
2023/09/17 12:34:57;;;;;;;24.60;17.90;;;22.80;99.90;;;;;;6215687;23;20350;-84
2023/09/17 12:37:32;;;;;;;23.02;18.20;;;23.30;99.90;;;;;;6189724;23;20025;-84
2023/09/17 12:39:58;;;;;;;23.98;17.85;;;22.70;99.90;;;;;;6190310;23;20019;-84
2023/09/17 12:42:35;;;;;;;26.60;18.67;;;22.70;99.90;;;;;;6189708;23;20048;-84
2023/09/17 12:45:01;;;;;;;25.55;19.70;;;22.70;99.90;;;;;;6187792;23;20017;-85
2023/09/17 12:47:36;;;;;;;26.42;20.13;;;22.80;99.90;;;;;;6188824;23;20027;-84
2023/09/17 12:50:18;;;;;;;30.13;21.00;;;22.70;99.90;;;;;;6189860;23;20070;-84
2023/09/17 12:53:08;;;;;;;24.40;18.92;;;22.80;99.90;;;;;;6188192;23;20020;-84
2023/09/17 12:55:43;;;;;;;24.73;19.20;;;22.70;99.90;;;;;;6188859;23;20019;-84
2023/09/17 12:58:30;;;;;;;23.23;19.33;;;22.70;99.90;;;;;;6189111;23;20144;-84
2023/09/17 13:01:14;;;;;;;24.00;19.83;;;22.60;99.90;;;;;;6188699;23;20453;-84
2023/09/17 13:10:52;;;;;;;24.42;18.80;;;22.60;99.90;;;;;;6157242;23;20095;-85
2023/09/17 13:17:38;;;;;;;22.95;19.08;;;22.50;99.90;;;;;;6187227;23;20063;-85
2023/09/17 13:27:06;;;;;;;23.70;17.83;;;22.60;99.90;;;;;;6159360;23;20020;-84
2023/09/17 13:30:07;;;;;;;24.83;19.08;;;22.60;99.90;;;;;;6139089;23;20013;-84
2023/09/17 13:43:52;;;;;;;23.65;19.95;;;22.80;99.90;;;;;;5981571;23;20027;-85
2023/09/17 13:46:36;;;;;;;24.48;19.85;;;23.20;99.90;;;;;;5984976;23;20024;-85
2023/09/17 13:49:51;;;;;;;23.45;19.08;;;23.50;99.90;;;;;;5983866;23;20075;-84
2023/09/17 13:52:49;;;;;;;21.70;18.70;;;23.40;99.90;;;;;;5984506;23;20072;-84
2023/09/17 13:55:52;;;;;;;23.77;19.90;;;23.60;99.90;;;;;;5939408;23;20051;-85
2023/09/17 14:08:57;;;;;;;24.43;18.70;;;23.80;99.90;;;;;;6061569;23;21748;-82
2023/09/17 14:11:26;;;;;;;23.60;19.30;;;23.40;99.90;;;;;;6186545;23;20102;-84
2023/09/17 14:14:10;;;;;;;21.63;18.40;;;23.40;99.90;;;;;;6188017;23;20096;-85
2023/09/17 14:16:51;;;;;;;21.27;19.00;;;23.50;99.90;;;;;;6215357;23;20048;-84
2023/09/17 14:19:35;;;;;;;53.92;47.78;;;23.60;99.90;;;;;;6186756;23;20128;-84
2023/09/17 14:22:48;;;;;;;23.90;21.30;;;23.60;99.90;;;;;;6214877;23;20338;-84
2023/09/17 14:28:14;;;;;;;30.35;24.75;;;23.20;99.90;;;;;;6040472;23;20026;-84
2023/09/17 14:30:55;;;;;;;236.70;195.57;;;23.30;99.90;;;;;;6039492;23;20384;-84
2023/09/17 14:33:40;;;;;;;84.32;65.80;;;23.30;99.90;;;;;;6059635;23;20070;-84
2023/09/17 14:36:14;;;;;;;56.95;46.70;;;23.30;99.90;;;;;;6187830;23;20087;-85
2023/09/17 14:38:49;;;;;;;21.38;17.70;;;23.40;99.90;;;;;;6187061;23;20437;-84
2023/09/17 14:41:15;;;;;;;19.52;17.10;;;23.10;99.90;;;;;;6187578;23;20024;-85
2023/09/17 14:44:40;;;;;;;20.65;16.65;;;23.60;99.90;;;;;;6147688;23;20027;-84
2023/09/17 14:47:11;;;;;;;21.15;17.63;;;23.20;99.90;;;;;;6187124;23;20388;-84
2023/09/17 14:53:37;;;;;;;20.75;16.83;;;22.90;99.90;;;;;;6064009;23;20089;-88
2023/09/17 14:59:28;;;;;;;22.67;19.10;;;22.70;99.90;;;;;;6064022;23;20049;-85
2023/09/17 15:02:09;;;;;;;28.60;24.73;;;22.70;99.90;;;;;;6040271;23;20055;-85
2023/09/17 15:04:34;;;;;;;23.17;19.20;;;22.50;99.90;;;;;;6039868;23;20034;-85
2023/09/17 15:07:12;;;;;;;21.67;18.73;;;22.50;99.90;;;;;;6040005;23;20015;-84
2023/09/17 15:13:35;;;;;;;23.33;18.38;;;22.60;99.90;;;;;;6206245;23;20027;-84
2023/09/17 15:20:22;;;;;;;19.02;14.82;;;22.10;99.90;;;;;;6213490;23;20110;-86
2023/09/17 15:26:26;;;;;;;18.58;14.73;;;23.10;99.90;;;;;;6216784;23;20072;-84
2023/09/17 15:28:52;;;;;;;28.10;25.00;;;23.40;99.90;;;;;;6188611;23;20515;-85
2023/09/17 15:31:40;;;;;;;18.48;14.60;;;23.10;99.90;;;;;;6189831;23;20021;-85
2023/09/17 15:34:06;;;;;;;19.25;15.63;;;23.10;99.90;;;;;;6190127;23;20023;-84
2023/09/17 15:36:38;;;;;;;19.38;14.80;;;23.10;99.90;;;;;;6189029;23;20012;-85
2023/09/17 15:39:05;;;;;;;20.73;16.90;;;23.00;99.90;;;;;;6190312;23;20027;-84
2023/09/17 15:41:30;;;;;;;21.70;17.23;;;23.00;99.90;;;;;;6189493;23;20013;-85
2023/09/17 15:43:56;;;;;;;20.70;15.13;;;23.00;99.90;;;;;;6189521;23;20028;-85
2023/09/17 15:46:23;;;;;;;17.20;13.80;;;22.90;99.90;;;;;;6189990;23;20005;-85
2023/09/17 15:48:50;;;;;;;18.15;14.02;;;22.80;99.90;;;;;;6188500;23;20023;-85
2023/09/17 15:51:27;;;;;;;19.30;15.32;;;22.70;99.90;;;;;;6188739;23;20388;-85
2023/09/17 15:53:56;;;;;;;16.80;13.43;;;22.60;99.90;;;;;;6189610;23;20009;-84
2023/09/17 15:56:33;;;;;;;19.45;13.90;;;22.50;99.90;;;;;;6188948;23;20013;-84
2023/09/17 15:59:09;;;;;;;18.50;14.45;;;22.50;99.90;;;;;;6189340;23;20017;-84
2023/09/17 16:01:44;;;;;;;20.40;15.65;;;22.50;99.90;;;;;;6188716;23;20449;-84
2023/09/17 16:04:18;;;;;;;23.40;18.58;;;22.40;99.90;;;;;;6189069;23;20020;-84
2023/09/17 16:06:54;;;;;;;22.48;18.60;;;22.40;99.90;;;;;;6189295;23;20096;-85
2023/09/17 16:09:34;;;;;;;20.92;16.75;;;22.40;99.90;;;;;;6189805;23;20115;-84
2023/09/17 16:12:06;;;;;;;21.65;16.83;;;22.30;99.90;;;;;;6192699;23;20001;-85
2023/09/17 16:14:50;;;;;;;22.33;16.90;;;22.30;99.90;;;;;;6207147;23;20001;-84
2023/09/17 16:17:24;;;;;;;21.48;16.73;;;22.20;99.90;;;;;;6191568;23;20024;-84
2023/09/17 16:19:56;;;;;;;21.75;16.73;;;22.20;99.90;;;;;;6189592;23;20017;-85
2023/09/17 16:22:33;;;;;;;25.65;19.65;;;22.20;99.90;;;;;;6189281;23;20023;-85
2023/09/17 16:25:00;;;;;;;22.65;16.20;;;22.20;99.90;;;;;;6188858;23;20103;-85
2023/09/17 16:27:26;;;;;;;19.67;15.50;;;22.10;99.90;;;;;;6189839;23;20009;-84
2023/09/17 16:29:53;;;;;;;22.10;16.40;;;22.10;99.90;;;;;;6189275;23;20071;-86
2023/09/17 16:32:23;;;;;;;21.88;16.58;;;22.10;99.90;;;;;;6186188;23;20044;-85
2023/09/17 16:34:51;;;;;;;20.08;16.15;;;22.10;99.90;;;;;;6187593;23;20017;-85
2023/09/17 16:37:18;;;;;;;20.52;16.35;;;22.10;99.90;;;;;;6189409;23;20013;-86
2023/09/17 16:40:17;;;;;;;20.95;14.85;;;22.10;99.90;;;;;;6185869;23;20025;-85
2023/09/17 16:42:43;;;;;;;21.02;15.38;;;22.00;99.90;;;;;;6187968;23;20016;-85
2023/09/17 16:45:18;;;;;;;20.02;15.48;;;21.90;99.90;;;;;;6187291;23;20102;-85
2023/09/17 16:48:47;;;;;;;;;;;;;;;;;;;;;
2023/09/17 16:52:05;;;;;;;19.95;15.25;;;21.80;99.90;;;;;;6036519;23;20098;-86
2023/09/17 16:54:49;;;;;;;19.85;15.48;;;21.70;99.90;;;;;;6082141;23;20127;-85
2023/09/17 16:57:37;;;;;;;20.40;15.27;;;21.70;99.90;;;;;;6189078;23;20341;-85
2023/09/17 17:00:38;;;;;;;20.98;16.33;;;21.60;99.90;;;;;;6188561;23;20021;-85
2023/09/17 17:04:00;;;;;;;30.08;22.02;;;21.50;99.90;;;;;;6041471;23;20026;-85
2023/09/17 17:06:29;;;;;;;23.98;18.52;;;21.50;99.90;;;;;;5999805;23;20022;-85
2023/09/17 17:09:00;;;;;;;31.15;23.30;;;21.40;99.90;;;;;;6041282;23;20070;-85
2023/09/17 17:12:00;;;;;;;;;;;;;;;;;;;;;
2023/09/17 17:33:16;;;;;;;18.40;13.68;;;20.60;99.90;;;;;;6211928;23;20035;-84
2023/09/17 17:47:09;;;;;;;20.33;14.55;;;20.20;99.90;;;;;;6155546;23;20217;-86
2023/09/17 18:05:13;;;;;;;22.60;15.93;;;19.70;99.90;;;;;;6034892;23;20055;-86
2023/09/17 18:08:15;;;;;;;20.60;15.00;;;19.70;99.90;;;;;;6010747;23;20075;-86
2023/09/17 18:10:49;;;;;;;21.25;16.25;;;19.40;99.90;;;;;;6008942;23;20030;-85
2023/09/17 18:13:27;;;;;;;21.10;14.60;;;19.70;99.90;;;;;;6011007;23;20027;-86
2023/09/17 18:16:05;;;;;;;18.45;14.63;;;19.60;99.90;;;;;;6066843;23;20028;-85
2023/09/17 18:18:37;;;;;;;20.77;15.57;;;19.60;99.90;;;;;;6186572;23;20103;-86
2023/09/17 18:21:37;;;;;;;18.80;14.45;;;19.50;99.90;;;;;;6186330;23;20075;-86
2023/09/17 18:24:43;;;;;;;20.13;15.05;;;19.30;99.90;;;;;;6161461;23;20017;-86
2023/09/17 18:27:52;;;;;;;;;;;;;;;;;;;;;
2023/09/17 18:30:39;;;;;;;21.05;14.65;;;19.30;99.90;;;;;;6083641;23;20021;-89
2023/09/17 18:34:35;;;;;;;;;;;;;;;;;;;;;
2023/09/17 18:37:41;;;;;;;21.10;14.93;;;19.20;99.90;;;;;;6005528;23;20030;-88
2023/09/17 18:53:56;;;;;;;21.70;16.25;;;18.90;99.90;;;;;;6186147;23;20107;-87
2023/09/17 18:56:41;;;;;;;20.30;14.77;;;18.70;99.90;;;;;;6197973;23;20023;-86